sensor_id;sensor_type;location;lat;lon;timestamp;P1;durP1;ratioP1;P2;durP2;ratioP2
29538;SDS011;16482;51.046;4.498;2023-03-14T00:00:49;4.90;;;1.50;;
29538;SDS011;16482;51.046;4.498;2023-03-14T00:03:24;4.75;;;1.83;;
29538;SDS011;16482;51.046;4.498;2023-03-14T00:05:52;2.78;;;1.40;;
29538;SDS011;16482;51.046;4.498;2023-03-14T00:08:21;5.00;;;1.58;;
29538;SDS011;16482;51.046;4.498;2023-03-14T00:10:49;2.50;;;1.48;;
29538;SDS011;16482;51.046;4.498;2023-03-14T00:13:20;4.13;;;1.67;;
29538;SDS011;16482;51.046;4.498;2023-03-14T00:16:00;3.50;;;1.50;;
29538;SDS011;16482;51.046;4.498;2023-03-14T00:18:30;2.08;;;1.27;;
29538;SDS011;16482;51.046;4.498;2023-03-14T00:20:57;2.75;;;1.27;;
29538;SDS011;16482;51.046;4.498;2023-03-14T00:23:24;3.28;;;1.15;;
29538;SDS011;16482;51.046;4.498;2023-03-14T00:25:50;3.63;;;1.63;;
29538;SDS011;16482;51.046;4.498;2023-03-14T00:28:21;3.63;;;1.33;;
29538;SDS011;16482;51.046;4.498;2023-03-14T00:30:56;3.55;;;1.70;;
29538;SDS011;16482;51.046;4.498;2023-03-14T00:33:22;4.65;;;1.50;;
29538;SDS011;16482;51.046;4.498;2023-03-14T00:35:59;2.42;;;1.33;;
29538;SDS011;16482;51.046;4.498;2023-03-14T00:38:27;4.20;;;1.50;;
29538;SDS011;16482;51.046;4.498;2023-03-14T00:40:53;4.68;;;1.60;;
29538;SDS011;16482;51.046;4.498;2023-03-14T00:43:22;3.92;;;1.83;;
29538;SDS011;16482;51.046;4.498;2023-03-14T00:45:52;3.55;;;1.50;;
29538;SDS011;16482;51.046;4.498;2023-03-14T00:48:21;4.25;;;1.60;;
29538;SDS011;16482;51.046;4.498;2023-03-14T00:50:54;2.60;;;1.23;;
29538;SDS011;16482;51.046;4.498;2023-03-14T00:53:20;3.28;;;1.40;;
29538;SDS011;16482;51.046;4.498;2023-03-14T00:55:51;3.78;;;1.42;;
29538;SDS011;16482;51.046;4.498;2023-03-14T00:58:20;4.10;;;1.90;;
29538;SDS011;16482;51.046;4.498;2023-03-14T01:00:53;3.50;;;1.50;;
29538;SDS011;16482;51.046;4.498;2023-03-14T01:03:21;3.92;;;1.30;;
29538;SDS011;16482;51.046;4.498;2023-03-14T01:05:49;2.78;;;1.23;;
29538;SDS011;16482;51.046;4.498;2023-03-14T01:08:15;3.40;;;1.50;;
29538;SDS011;16482;51.046;4.498;2023-03-14T01:10:57;4.22;;;1.52;;
29538;SDS011;16482;51.046;4.498;2023-03-14T01:13:23;3.83;;;1.58;;
29538;SDS011;16482;51.046;4.498;2023-03-14T01:15:51;4.28;;;1.75;;
29538;SDS011;16482;51.046;4.498;2023-03-14T01:18:20;3.85;;;1.60;;
29538;SDS011;16482;51.046;4.498;2023-03-14T01:20:53;3.88;;;1.55;;
29538;SDS011;16482;51.046;4.498;2023-03-14T01:23:19;4.15;;;1.38;;
29538;SDS011;16482;51.046;4.498;2023-03-14T01:25:51;5.15;;;1.90;;
29538;SDS011;16482;51.046;4.498;2023-03-14T01:28:26;2.67;;;1.15;;
29538;SDS011;16482;51.046;4.498;2023-03-14T01:30:52;3.92;;;1.30;;
29538;SDS011;16482;51.046;4.498;2023-03-14T01:33:25;2.72;;;1.52;;
29538;SDS011;16482;51.046;4.498;2023-03-14T01:35:51;3.95;;;1.85;;
29538;SDS011;16482;51.046;4.498;2023-03-14T01:38:24;3.75;;;1.50;;
29538;SDS011;16482;51.046;4.498;2023-03-14T01:40:50;4.18;;;1.70;;
29538;SDS011;16482;51.046;4.498;2023-03-14T01:43:19;5.40;;;1.70;;
29538;SDS011;16482;51.046;4.498;2023-03-14T01:51:20;3.42;;;1.42;;
29538;SDS011;16482;51.046;4.498;2023-03-14T01:53:50;4.43;;;1.70;;
29538;SDS011;16482;51.046;4.498;2023-03-14T01:56:19;5.63;;;1.80;;
29538;SDS011;16482;51.046;4.498;2023-03-14T01:58:46;4.63;;;1.70;;
29538;SDS011;16482;51.046;4.498;2023-03-14T02:01:20;3.90;;;1.80;;
29538;SDS011;16482;51.046;4.498;2023-03-14T02:03:50;5.55;;;1.58;;
29538;SDS011;16482;51.046;4.498;2023-03-14T02:06:19;4.00;;;1.60;;
29538;SDS011;16482;51.046;4.498;2023-03-14T02:08:50;5.10;;;2.03;;
29538;SDS011;16482;51.046;4.498;2023-03-14T02:11:16;3.85;;;1.73;;
29538;SDS011;16482;51.046;4.498;2023-03-14T02:13:43;4.00;;;1.50;;
29538;SDS011;16482;51.046;4.498;2023-03-14T02:16:10;5.03;;;1.77;;
29538;SDS011;16482;51.046;4.498;2023-03-14T02:18:36;4.20;;;1.80;;
29538;SDS011;16482;51.046;4.498;2023-03-14T02:21:08;2.92;;;1.67;;
29538;SDS011;16482;51.046;4.498;2023-03-14T02:29:43;2.38;;;1.60;;
29538;SDS011;16482;51.046;4.498;2023-03-14T02:32:15;4.55;;;1.75;;
29538;SDS011;16482;51.046;4.498;2023-03-14T02:34:42;3.95;;;1.48;;
29538;SDS011;16482;51.046;4.498;2023-03-14T02:37:12;3.70;;;1.30;;
29538;SDS011;16482;51.046;4.498;2023-03-14T02:39:41;4.65;;;1.48;;
29538;SDS011;16482;51.046;4.498;2023-03-14T02:42:10;5.63;;;1.60;;
29538;SDS011;16482;51.046;4.498;2023-03-14T02:44:46;4.20;;;1.60;;
29538;SDS011;16482;51.046;4.498;2023-03-14T02:47:14;3.63;;;1.55;;
29538;SDS011;16482;51.046;4.498;2023-03-14T02:49:42;3.08;;;1.40;;
29538;SDS011;16482;51.046;4.498;2023-03-14T02:52:08;3.88;;;1.50;;
29538;SDS011;16482;51.046;4.498;2023-03-14T02:54:34;3.80;;;1.42;;
29538;SDS011;16482;51.046;4.498;2023-03-14T02:57:01;5.70;;;1.60;;
29538;SDS011;16482;51.046;4.498;2023-03-14T02:59:28;2.75;;;1.00;;
29538;SDS011;16482;51.046;4.498;2023-03-14T03:01:54;3.10;;;1.50;;
29538;SDS011;16482;51.046;4.498;2023-03-14T03:04:20;3.42;;;1.35;;
29538;SDS011;16482;51.046;4.498;2023-03-14T03:06:46;2.38;;;1.42;;
29538;SDS011;16482;51.046;4.498;2023-03-14T03:09:11;2.72;;;1.40;;
29538;SDS011;16482;51.046;4.498;2023-03-14T03:11:45;4.28;;;1.55;;
29538;SDS011;16482;51.046;4.498;2023-03-14T03:14:11;3.92;;;1.60;;
29538;SDS011;16482;51.046;4.498;2023-03-14T03:16:44;3.53;;;1.40;;
29538;SDS011;16482;51.046;4.498;2023-03-14T03:19:10;3.35;;;1.42;;
29538;SDS011;16482;51.046;4.498;2023-03-14T03:21:41;4.00;;;1.40;;
29538;SDS011;16482;51.046;4.498;2023-03-14T03:24:10;3.33;;;1.20;;
29538;SDS011;16482;51.046;4.498;2023-03-14T03:26:43;3.47;;;1.55;;
29538;SDS011;16482;51.046;4.498;2023-03-14T03:29:12;3.47;;;1.15;;
29538;SDS011;16482;51.046;4.498;2023-03-14T03:31:40;2.95;;;1.45;;
29538;SDS011;16482;51.046;4.498;2023-03-14T03:34:09;4.47;;;1.75;;
29538;SDS011;16482;51.046;4.498;2023-03-14T03:36:41;2.65;;;1.23;;
29538;SDS011;16482;51.046;4.498;2023-03-14T03:39:15;3.83;;;1.30;;
29538;SDS011;16482;51.046;4.498;2023-03-14T03:41:41;4.68;;;1.58;;
29538;SDS011;16482;51.046;4.498;2023-03-14T03:44:10;3.08;;;1.27;;
29538;SDS011;16482;51.046;4.498;2023-03-14T03:46:46;3.03;;;1.50;;
29538;SDS011;16482;51.046;4.498;2023-03-14T03:49:12;2.80;;;1.20;;
29538;SDS011;16482;51.046;4.498;2023-03-14T03:51:40;2.40;;;1.40;;
29538;SDS011;16482;51.046;4.498;2023-03-14T03:54:11;3.78;;;1.17;;
29538;SDS011;16482;51.046;4.498;2023-03-14T03:56:40;3.58;;;1.30;;
29538;SDS011;16482;51.046;4.498;2023-03-14T03:59:14;2.85;;;1.38;;
29538;SDS011;16482;51.046;4.498;2023-03-14T04:01:42;3.60;;;1.30;;
29538;SDS011;16482;51.046;4.498;2023-03-14T04:04:17;4.75;;;1.48;;
29538;SDS011;16482;51.046;4.498;2023-03-14T04:06:44;3.67;;;1.40;;
29538;SDS011;16482;51.046;4.498;2023-03-14T04:09:10;4.15;;;1.60;;
29538;SDS011;16482;51.046;4.498;2023-03-14T04:11:44;2.88;;;1.63;;
29538;SDS011;16482;51.046;4.498;2023-03-14T04:14:12;3.75;;;1.58;;
29538;SDS011;16482;51.046;4.498;2023-03-14T04:16:41;3.10;;;1.35;;
29538;SDS011;16482;51.046;4.498;2023-03-14T04:19:14;3.00;;;1.38;;
29538;SDS011;16482;51.046;4.498;2023-03-14T04:21:40;4.18;;;1.40;;
29538;SDS011;16482;51.046;4.498;2023-03-14T04:24:09;3.58;;;1.70;;
29538;SDS011;16482;51.046;4.498;2023-03-14T04:26:43;4.28;;;1.52;;
29538;SDS011;16482;51.046;4.498;2023-03-14T04:29:09;3.15;;;1.30;;
29538;SDS011;16482;51.046;4.498;2023-03-14T04:31:44;2.70;;;1.50;;
29538;SDS011;16482;51.046;4.498;2023-03-14T04:34:12;4.40;;;1.80;;
29538;SDS011;16482;51.046;4.498;2023-03-14T04:36:40;3.28;;;1.40;;
29538;SDS011;16482;51.046;4.498;2023-03-14T04:39:06;3.60;;;1.60;;
29538;SDS011;16482;51.046;4.498;2023-03-14T04:41:44;3.10;;;1.27;;
29538;SDS011;16482;51.046;4.498;2023-03-14T04:49:12;3.25;;;1.30;;
29538;SDS011;16482;51.046;4.498;2023-03-14T04:51:40;5.85;;;1.50;;
29538;SDS011;16482;51.046;4.498;2023-03-14T04:54:14;3.92;;;1.40;;
29538;SDS011;16482;51.046;4.498;2023-03-14T04:56:42;3.00;;;1.30;;
29538;SDS011;16482;51.046;4.498;2023-03-14T04:59:17;2.78;;;1.50;;
29538;SDS011;16482;51.046;4.498;2023-03-14T05:01:43;3.85;;;1.50;;
29538;SDS011;16482;51.046;4.498;2023-03-14T05:04:11;2.10;;;1.10;;
29538;SDS011;16482;51.046;4.498;2023-03-14T05:06:43;2.65;;;1.20;;
29538;SDS011;16482;51.046;4.498;2023-03-14T05:09:11;4.03;;;1.40;;
29538;SDS011;16482;51.046;4.498;2023-03-14T05:11:45;2.47;;;1.40;;
29538;SDS011;16482;51.046;4.498;2023-03-14T05:14:13;2.65;;;1.25;;
29538;SDS011;16482;51.046;4.498;2023-03-14T05:16:47;3.08;;;1.33;;
29538;SDS011;16482;51.046;4.498;2023-03-14T05:19:12;1.70;;;1.25;;
29538;SDS011;16482;51.046;4.498;2023-03-14T05:21:43;2.25;;;1.13;;
29538;SDS011;16482;51.046;4.498;2023-03-14T05:24:12;2.58;;;1.08;;
29538;SDS011;16482;51.046;4.498;2023-03-14T05:26:44;2.90;;;1.35;;
29538;SDS011;16482;51.046;4.498;2023-03-14T05:29:17;2.88;;;1.30;;
29538;SDS011;16482;51.046;4.498;2023-03-14T05:31:43;3.13;;;1.20;;
29538;SDS011;16482;51.046;4.498;2023-03-14T05:34:18;2.95;;;1.30;;
29538;SDS011;16482;51.046;4.498;2023-03-14T05:36:44;3.25;;;1.50;;
29538;SDS011;16482;51.046;4.498;2023-03-14T05:39:17;2.67;;;1.30;;
29538;SDS011;16482;51.046;4.498;2023-03-14T05:41:43;2.50;;;1.10;;
29538;SDS011;16482;51.046;4.498;2023-03-14T05:44:16;1.95;;;1.20;;
29538;SDS011;16482;51.046;4.498;2023-03-14T05:46:42;2.60;;;1.20;;
29538;SDS011;16482;51.046;4.498;2023-03-14T05:49:17;2.38;;;1.23;;
29538;SDS011;16482;51.046;4.498;2023-03-14T05:51:43;1.88;;;1.10;;
29538;SDS011;16482;51.046;4.498;2023-03-14T05:54:18;3.53;;;1.30;;
29538;SDS011;16482;51.046;4.498;2023-03-14T05:56:44;3.20;;;1.00;;
29538;SDS011;16482;51.046;4.498;2023-03-14T05:59:17;2.30;;;1.10;;
29538;SDS011;16482;51.046;4.498;2023-03-14T06:01:46;1.83;;;0.90;;
29538;SDS011;16482;51.046;4.498;2023-03-14T06:04:14;1.25;;;0.95;;
29538;SDS011;16482;51.046;4.498;2023-03-14T06:06:43;2.63;;;1.42;;
29538;SDS011;16482;51.046;4.498;2023-03-14T06:09:18;2.08;;;1.08;;
29538;SDS011;16482;51.046;4.498;2023-03-14T06:11:47;1.95;;;1.10;;
29538;SDS011;16482;51.046;4.498;2023-03-14T06:14:15;1.80;;;1.08;;
29538;SDS011;16482;51.046;4.498;2023-03-14T06:16:44;3.03;;;1.00;;
29538;SDS011;16482;51.046;4.498;2023-03-14T06:19:17;1.92;;;1.10;;
29538;SDS011;16482;51.046;4.498;2023-03-14T06:21:43;2.40;;;1.15;;
29538;SDS011;16482;51.046;4.498;2023-03-14T06:24:18;1.77;;;1.00;;
29538;SDS011;16482;51.046;4.498;2023-03-14T06:26:44;1.88;;;1.00;;
29538;SDS011;16482;51.046;4.498;2023-03-14T06:29:12;2.20;;;1.08;;
29538;SDS011;16482;51.046;4.498;2023-03-14T06:31:46;1.42;;;1.00;;
29538;SDS011;16482;51.046;4.498;2023-03-14T06:34:14;2.08;;;1.15;;
29538;SDS011;16482;51.046;4.498;2023-03-14T06:36:43;1.95;;;1.08;;
29538;SDS011;16482;51.046;4.498;2023-03-14T06:39:18;1.42;;;1.10;;
29538;SDS011;16482;51.046;4.498;2023-03-14T06:41:44;1.40;;;0.88;;
29538;SDS011;16482;51.046;4.498;2023-03-14T06:44:13;1.58;;;1.10;;
29538;SDS011;16482;51.046;4.498;2023-03-14T06:46:44;1.80;;;1.17;;
29538;SDS011;16482;51.046;4.498;2023-03-14T06:49:17;1.77;;;0.88;;
29538;SDS011;16482;51.046;4.498;2023-03-14T06:51:46;1.77;;;0.93;;
29538;SDS011;16482;51.046;4.498;2023-03-14T06:54:14;2.42;;;1.00;;
29538;SDS011;16482;51.046;4.498;2023-03-14T06:56:49;3.25;;;1.13;;
29538;SDS011;16482;51.046;4.498;2023-03-14T06:59:15;2.40;;;1.05;;
29538;SDS011;16482;51.046;4.498;2023-03-14T07:01:43;1.48;;;0.80;;
29538;SDS011;16482;51.046;4.498;2023-03-14T07:04:12;2.67;;;1.20;;
29538;SDS011;16482;51.046;4.498;2023-03-14T07:06:40;1.08;;;0.80;;
29538;SDS011;16482;51.046;4.498;2023-03-14T07:09:15;1.58;;;0.82;;
29538;SDS011;16482;51.046;4.498;2023-03-14T07:11:47;1.60;;;0.93;;
29538;SDS011;16482;51.046;4.498;2023-03-14T07:14:15;1.65;;;1.02;;
29538;SDS011;16482;51.046;4.498;2023-03-14T07:16:49;1.80;;;0.93;;
29538;SDS011;16482;51.046;4.498;2023-03-14T07:19:15;2.28;;;1.02;;
29538;SDS011;16482;51.046;4.498;2023-03-14T07:21:43;1.48;;;0.80;;
29538;SDS011;16482;51.046;4.498;2023-03-14T07:24:17;1.65;;;0.90;;
29538;SDS011;16482;51.046;4.498;2023-03-14T07:26:43;1.15;;;0.82;;
29538;SDS011;16482;51.046;4.498;2023-03-14T07:29:11;0.85;;;0.60;;
29538;SDS011;16482;51.046;4.498;2023-03-14T07:31:54;0.90;;;0.70;;
29538;SDS011;16482;51.046;4.498;2023-03-14T07:34:20;1.20;;;0.70;;
29538;SDS011;16482;51.046;4.498;2023-03-14T07:36:46;2.13;;;0.88;;
29538;SDS011;16482;51.046;4.498;2023-03-14T07:39:14;1.17;;;0.80;;
29538;SDS011;16482;51.046;4.498;2023-03-14T07:41:43;1.60;;;0.77;;
29538;SDS011;16482;51.046;4.498;2023-03-14T07:44:18;2.03;;;1.00;;
29538;SDS011;16482;51.046;4.498;2023-03-14T07:46:47;1.88;;;1.00;;
29538;SDS011;16482;51.046;4.498;2023-03-14T07:49:12;2.08;;;0.90;;
29538;SDS011;16482;51.046;4.498;2023-03-14T07:51:56;1.73;;;0.77;;
29538;SDS011;16482;51.046;4.498;2023-03-14T07:54:23;2.15;;;0.80;;
29538;SDS011;16482;51.046;4.498;2023-03-14T07:56:49;1.23;;;0.77;;
29538;SDS011;16482;51.046;4.498;2023-03-14T07:59:17;1.88;;;0.85;;
29538;SDS011;16482;51.046;4.498;2023-03-14T08:01:46;1.27;;;0.70;;
29538;SDS011;16482;51.046;4.498;2023-03-14T08:04:14;1.33;;;0.70;;
29538;SDS011;16482;51.046;4.498;2023-03-14T08:06:47;1.92;;;0.80;;
29538;SDS011;16482;51.046;4.498;2023-03-14T08:09:13;2.15;;;0.80;;
29538;SDS011;16482;51.046;4.498;2023-03-14T08:11:48;1.05;;;0.68;;
29538;SDS011;16482;51.046;4.498;2023-03-14T08:14:14;2.05;;;0.77;;
29538;SDS011;16482;51.046;4.498;2023-03-14T08:16:42;1.35;;;0.70;;
29538;SDS011;16482;51.046;4.498;2023-03-14T08:19:13;1.17;;;0.70;;
29538;SDS011;16482;51.046;4.498;2023-03-14T08:21:48;3.47;;;0.90;;
29538;SDS011;16482;51.046;4.498;2023-03-14T08:24:14;4.30;;;0.95;;
29538;SDS011;16482;51.046;4.498;2023-03-14T08:26:47;1.10;;;0.68;;
29538;SDS011;16482;51.046;4.498;2023-03-14T08:29:13;1.88;;;0.77;;
29538;SDS011;16482;51.046;4.498;2023-03-14T08:31:46;1.70;;;0.60;;
29538;SDS011;16482;51.046;4.498;2023-03-14T08:34:13;2.45;;;0.82;;
29538;SDS011;16482;51.046;4.498;2023-03-14T08:36:57;2.17;;;0.90;;
29538;SDS011;16482;51.046;4.498;2023-03-14T08:39:23;1.20;;;0.80;;
29538;SDS011;16482;51.046;4.498;2023-03-14T08:41:49;1.08;;;0.60;;
29538;SDS011;16482;51.046;4.498;2023-03-14T08:44:15;1.60;;;0.73;;
29538;SDS011;16482;51.046;4.498;2023-03-14T08:46:44;1.15;;;0.80;;
29538;SDS011;16482;51.046;4.498;2023-03-14T08:49:13;1.48;;;0.88;;
29538;SDS011;16482;51.046;4.498;2023-03-14T08:51:44;1.15;;;0.60;;
29538;SDS011;16482;51.046;4.498;2023-03-14T08:54:18;1.80;;;0.70;;
29538;SDS011;16482;51.046;4.498;2023-03-14T08:56:44;1.20;;;0.80;;
29538;SDS011;16482;51.046;4.498;2023-03-14T08:59:13;1.00;;;0.70;;
29538;SDS011;16482;51.046;4.498;2023-03-14T09:01:38;1.35;;;0.80;;
29538;SDS011;16482;51.046;4.498;2023-03-14T09:04:19;1.52;;;0.70;;
29538;SDS011;16482;51.046;4.498;2023-03-14T09:06:45;1.38;;;0.80;;
29538;SDS011;16482;51.046;4.498;2023-03-14T09:09:13;2.67;;;0.82;;
29538;SDS011;16482;51.046;4.498;2023-03-14T09:11:44;1.38;;;0.75;;
29538;SDS011;16482;51.046;4.498;2023-03-14T09:14:16;1.58;;;0.75;;
29538;SDS011;16482;51.046;4.498;2023-03-14T09:16:44;1.38;;;0.90;;
29538;SDS011;16482;51.046;4.498;2023-03-14T09:19:19;3.22;;;0.70;;
29538;SDS011;16482;51.046;4.498;2023-03-14T09:24:14;1.65;;;0.70;;
29538;SDS011;16482;51.046;4.498;2023-03-14T09:26:44;2.03;;;0.90;;
29538;SDS011;16482;51.046;4.498;2023-03-14T09:29:13;2.22;;;0.90;;
29538;SDS011;16482;51.046;4.498;2023-03-14T09:31:44;1.77;;;0.77;;
29538;SDS011;16482;51.046;4.498;2023-03-14T09:34:15;1.58;;;0.70;;
29538;SDS011;16482;51.046;4.498;2023-03-14T09:36:44;2.13;;;1.10;;
29538;SDS011;16482;51.046;4.498;2023-03-14T09:39:19;1.63;;;0.82;;
29538;SDS011;16482;51.046;4.498;2023-03-14T09:41:48;2.15;;;0.70;;
29538;SDS011;16482;51.046;4.498;2023-03-14T09:46:50;4.13;;;0.80;;
29538;SDS011;16482;51.046;4.498;2023-03-14T09:49:21;2.10;;;0.90;;
29538;SDS011;16482;51.046;4.498;2023-03-14T09:51:58;1.23;;;0.70;;
29538;SDS011;16482;51.046;4.498;2023-03-14T09:54:35;0.95;;;0.70;;
29538;SDS011;16482;51.046;4.498;2023-03-14T09:57:14;2.03;;;0.90;;
29538;SDS011;16482;51.046;4.498;2023-03-14T09:59:44;1.73;;;0.80;;
29538;SDS011;16482;51.046;4.498;2023-03-14T10:02:14;2.20;;;0.98;;
29538;SDS011;16482;51.046;4.498;2023-03-14T10:04:44;1.40;;;0.73;;
29538;SDS011;16482;51.046;4.498;2023-03-14T10:07:12;1.75;;;1.00;;
29538;SDS011;16482;51.046;4.498;2023-03-14T10:09:42;2.65;;;1.05;;
29538;SDS011;16482;51.046;4.498;2023-03-14T10:12:08;2.67;;;0.70;;
29538;SDS011;16482;51.046;4.498;2023-03-14T10:14:36;1.20;;;0.70;;
29538;SDS011;16482;51.046;4.498;2023-03-14T10:17:12;2.13;;;0.70;;
29538;SDS011;16482;51.046;4.498;2023-03-14T10:19:50;1.63;;;0.93;;
29538;SDS011;16482;51.046;4.498;2023-03-14T10:22:21;1.20;;;0.60;;
29538;SDS011;16482;51.046;4.498;2023-03-14T10:24:52;1.38;;;0.65;;
29538;SDS011;16482;51.046;4.498;2023-03-14T10:27:22;1.42;;;0.60;;
29538;SDS011;16482;51.046;4.498;2023-03-14T10:32:54;2.80;;;0.88;;
29538;SDS011;16482;51.046;4.498;2023-03-14T10:35:21;1.50;;;0.88;;
29538;SDS011;16482;51.046;4.498;2023-03-14T10:37:52;1.50;;;0.80;;
29538;SDS011;16482;51.046;4.498;2023-03-14T10:40:33;1.95;;;0.80;;
29538;SDS011;16482;51.046;4.498;2023-03-14T10:43:13;2.95;;;1.15;;
29538;SDS011;16482;51.046;4.498;2023-03-14T10:45:42;1.60;;;0.55;;
29538;SDS011;16482;51.046;4.498;2023-03-14T10:53:32;3.17;;;0.60;;
29538;SDS011;16482;51.046;4.498;2023-03-14T10:56:12;1.40;;;0.70;;
29538;SDS011;16482;51.046;4.498;2023-03-14T10:58:46;1.73;;;0.70;;
29538;SDS011;16482;51.046;4.498;2023-03-14T11:06:56;1.52;;;0.73;;
29538;SDS011;16482;51.046;4.498;2023-03-14T11:09:47;1.02;;;0.70;;
29538;SDS011;16482;51.046;4.498;2023-03-14T11:12:30;1.65;;;0.90;;
29538;SDS011;16482;51.046;4.498;2023-03-14T11:15:05;1.58;;;0.80;;
29538;SDS011;16482;51.046;4.498;2023-03-14T11:20:54;1.20;;;0.70;;
29538;SDS011;16482;51.046;4.498;2023-03-14T11:28:56;0.98;;;0.73;;
29538;SDS011;16482;51.046;4.498;2023-03-14T11:31:27;1.52;;;0.77;;
29538;SDS011;16482;51.046;4.498;2023-03-14T11:37:44;1.02;;;0.63;;
29538;SDS011;16482;51.046;4.498;2023-03-14T11:42:44;2.40;;;0.70;;
29538;SDS011;16482;51.046;4.498;2023-03-14T11:45:20;1.40;;;0.70;;
29538;SDS011;16482;51.046;4.498;2023-03-14T11:50:40;0.95;;;0.75;;
29538;SDS011;16482;51.046;4.498;2023-03-14T11:56:31;2.70;;;0.77;;
29538;SDS011;16482;51.046;4.498;2023-03-14T11:58:59;1.98;;;1.02;;
29538;SDS011;16482;51.046;4.498;2023-03-14T12:01:36;2.88;;;1.02;;
29538;SDS011;16482;51.046;4.498;2023-03-14T12:06:55;1.80;;;0.80;;
29538;SDS011;16482;51.046;4.498;2023-03-14T12:09:23;2.97;;;0.70;;
29538;SDS011;16482;51.046;4.498;2023-03-14T12:11:50;2.25;;;1.13;;
29538;SDS011;16482;51.046;4.498;2023-03-14T12:14:24;2.92;;;1.20;;
29538;SDS011;16482;51.046;4.498;2023-03-14T12:16:55;2.67;;;1.02;;
29538;SDS011;16482;51.046;4.498;2023-03-14T12:24:18;2.97;;;1.27;;
29538;SDS011;16482;51.046;4.498;2023-03-14T12:26:54;4.35;;;1.08;;
29538;SDS011;16482;51.046;4.498;2023-03-14T12:29:22;4.00;;;1.00;;
29538;SDS011;16482;51.046;4.498;2023-03-14T12:31:49;2.08;;;1.00;;
29538;SDS011;16482;51.046;4.498;2023-03-14T12:34:33;6.22;;;1.20;;
29538;SDS011;16482;51.046;4.498;2023-03-14T12:37:05;2.47;;;1.27;;
29538;SDS011;16482;51.046;4.498;2023-03-14T12:42:38;1.88;;;0.82;;
29538;SDS011;16482;51.046;4.498;2023-03-14T12:48:08;2.05;;;1.15;;
29538;SDS011;16482;51.046;4.498;2023-03-14T12:51:00;3.63;;;1.30;;
29538;SDS011;16482;51.046;4.498;2023-03-14T12:53:42;3.15;;;1.30;;
29538;SDS011;16482;51.046;4.498;2023-03-14T13:04:34;2.67;;;1.20;;
29538;SDS011;16482;51.046;4.498;2023-03-14T13:07:11;4.95;;;1.48;;
29538;SDS011;16482;51.046;4.498;2023-03-14T13:10:39;2.28;;;1.15;;
29538;SDS011;16482;51.046;4.498;2023-03-14T13:12:38;4.05;;;1.50;;
29538;SDS011;16482;51.046;4.498;2023-03-14T13:15:17;4.70;;;1.95;;
29538;SDS011;16482;51.046;4.498;2023-03-14T13:17:46;3.05;;;1.40;;
29538;SDS011;16482;51.046;4.498;2023-03-14T13:20:28;4.43;;;1.35;;
29538;SDS011;16482;51.046;4.498;2023-03-14T13:23:00;4.40;;;1.70;;
29538;SDS011;16482;51.046;4.498;2023-03-14T13:25:31;3.58;;;1.52;;
29538;SDS011;16482;51.046;4.498;2023-03-14T13:27:59;4.63;;;1.55;;
29538;SDS011;16482;51.046;4.498;2023-03-14T13:30:27;4.57;;;1.60;;
29538;SDS011;16482;51.046;4.498;2023-03-14T13:33:03;4.57;;;1.60;;
29538;SDS011;16482;51.046;4.498;2023-03-14T13:35:38;5.03;;;1.77;;
29538;SDS011;16482;51.046;4.498;2023-03-14T13:38:14;6.63;;;2.13;;
29538;SDS011;16482;51.046;4.498;2023-03-14T13:41:07;6.32;;;1.90;;
29538;SDS011;16482;51.046;4.498;2023-03-14T13:43:36;5.00;;;1.73;;
29538;SDS011;16482;51.046;4.498;2023-03-14T13:46:13;7.25;;;1.98;;
29538;SDS011;16482;51.046;4.498;2023-03-14T13:48:45;4.88;;;1.63;;
29538;SDS011;16482;51.046;4.498;2023-03-14T13:51:15;5.30;;;1.92;;
29538;SDS011;16482;51.046;4.498;2023-03-14T13:56:19;3.90;;;1.73;;
29538;SDS011;16482;51.046;4.498;2023-03-14T13:58:46;6.30;;;2.13;;
29538;SDS011;16482;51.046;4.498;2023-03-14T14:03:44;4.25;;;1.90;;
29538;SDS011;16482;51.046;4.498;2023-03-14T14:06:27;4.72;;;1.85;;
29538;SDS011;16482;51.046;4.498;2023-03-14T14:11:58;4.88;;;1.73;;
29538;SDS011;16482;51.046;4.498;2023-03-14T14:17:44;5.57;;;2.10;;
29538;SDS011;16482;51.046;4.498;2023-03-14T14:23:03;4.55;;;1.90;;
29538;SDS011;16482;51.046;4.498;2023-03-14T14:25:30;3.42;;;1.60;;
29538;SDS011;16482;51.046;4.498;2023-03-14T14:27:57;4.70;;;1.90;;
29538;SDS011;16482;51.046;4.498;2023-03-14T14:30:25;4.57;;;1.70;;
29538;SDS011;16482;51.046;4.498;2023-03-14T14:32:52;5.53;;;1.92;;
29538;SDS011;16482;51.046;4.498;2023-03-14T14:35:22;3.85;;;1.48;;
29538;SDS011;16482;51.046;4.498;2023-03-14T14:37:50;6.32;;;1.80;;
29538;SDS011;16482;51.046;4.498;2023-03-14T14:40:27;3.53;;;1.42;;
29538;SDS011;16482;51.046;4.498;2023-03-14T14:42:55;3.55;;;1.40;;
29538;SDS011;16482;51.046;4.498;2023-03-14T14:45:27;4.07;;;1.65;;
29538;SDS011;16482;51.046;4.498;2023-03-14T14:48:04;4.50;;;1.58;;
29538;SDS011;16482;51.046;4.498;2023-03-14T14:50:38;3.28;;;1.35;;
29538;SDS011;16482;51.046;4.498;2023-03-14T14:55:56;3.92;;;1.38;;
29538;SDS011;16482;51.046;4.498;2023-03-14T14:58:26;3.83;;;1.50;;
29538;SDS011;16482;51.046;4.498;2023-03-14T15:01:08;4.05;;;1.48;;
29538;SDS011;16482;51.046;4.498;2023-03-14T15:03:41;3.35;;;1.40;;
29538;SDS011;16482;51.046;4.498;2023-03-14T15:06:09;3.10;;;1.52;;
29538;SDS011;16482;51.046;4.498;2023-03-14T15:08:37;3.80;;;1.60;;
29538;SDS011;16482;51.046;4.498;2023-03-14T15:11:03;3.80;;;1.58;;
29538;SDS011;16482;51.046;4.498;2023-03-14T15:13:29;6.70;;;1.83;;
29538;SDS011;16482;51.046;4.498;2023-03-14T15:15:55;3.33;;;1.45;;
29538;SDS011;16482;51.046;4.498;2023-03-14T15:18:43;5.53;;;1.65;;
29538;SDS011;16482;51.046;4.498;2023-03-14T15:21:13;3.65;;;1.25;;
29538;SDS011;16482;51.046;4.498;2023-03-14T15:23:39;4.63;;;1.73;;
29538;SDS011;16482;51.046;4.498;2023-03-14T15:26:09;4.28;;;1.73;;
29538;SDS011;16482;51.046;4.498;2023-03-14T15:28:38;4.07;;;1.60;;
29538;SDS011;16482;51.046;4.498;2023-03-14T15:31:05;3.92;;;1.58;;
29538;SDS011;16482;51.046;4.498;2023-03-14T15:33:34;5.38;;;1.67;;
29538;SDS011;16482;51.046;4.498;2023-03-14T15:36:00;3.05;;;1.55;;
29538;SDS011;16482;51.046;4.498;2023-03-14T15:38:28;2.90;;;1.20;;
29538;SDS011;16482;51.046;4.498;2023-03-14T15:40:54;4.10;;;1.35;;
29538;SDS011;16482;51.046;4.498;2023-03-14T15:43:22;4.93;;;1.45;;
29538;SDS011;16482;51.046;4.498;2023-03-14T15:46:07;5.55;;;1.73;;
29538;SDS011;16482;51.046;4.498;2023-03-14T15:48:37;3.60;;;1.40;;
29538;SDS011;16482;51.046;4.498;2023-03-14T15:51:03;3.88;;;1.50;;
29538;SDS011;16482;51.046;4.498;2023-03-14T15:53:29;4.20;;;1.50;;
29538;SDS011;16482;51.046;4.498;2023-03-14T15:55:55;4.43;;;1.60;;
29538;SDS011;16482;51.046;4.498;2023-03-14T15:58:24;3.17;;;1.55;;
29538;SDS011;16482;51.046;4.498;2023-03-14T16:01:00;3.67;;;1.52;;
29538;SDS011;16482;51.046;4.498;2023-03-14T16:03:30;4.82;;;1.90;;
29538;SDS011;16482;51.046;4.498;2023-03-14T16:05:56;3.20;;;1.50;;
29538;SDS011;16482;51.046;4.498;2023-03-14T16:08:31;2.08;;;1.17;;
29538;SDS011;16482;51.046;4.498;2023-03-14T16:10:57;3.67;;;1.60;;
29538;SDS011;16482;51.046;4.498;2023-03-14T16:13:24;7.10;;;1.77;;
29538;SDS011;16482;51.046;4.498;2023-03-14T16:18:30;4.28;;;1.60;;
29538;SDS011;16482;51.046;4.498;2023-03-14T16:23:27;2.83;;;1.40;;
29538;SDS011;16482;51.046;4.498;2023-03-14T16:25:56;3.70;;;1.60;;
29538;SDS011;16482;51.046;4.498;2023-03-14T16:28:25;3.88;;;1.80;;
29538;SDS011;16482;51.046;4.498;2023-03-14T16:31:00;4.97;;;1.55;;
29538;SDS011;16482;51.046;4.498;2023-03-14T16:33:29;4.75;;;1.70;;
29538;SDS011;16482;51.046;4.498;2023-03-14T16:35:57;3.80;;;1.67;;
29538;SDS011;16482;51.046;4.498;2023-03-14T16:38:30;4.22;;;1.70;;
29538;SDS011;16482;51.046;4.498;2023-03-14T16:41:03;5.03;;;1.73;;
29538;SDS011;16482;51.046;4.498;2023-03-14T16:43:31;3.40;;;1.33;;
29538;SDS011;16482;51.046;4.498;2023-03-14T16:45:58;5.57;;;1.80;;
29538;SDS011;16482;51.046;4.498;2023-03-14T16:48:27;3.45;;;1.20;;